sensor_id;sensor_type;location;lat;lon;timestamp;pressure;altitude;pressure_sealevel;temperature;humidity
65384;BME280;51986;52.788;41.368;2023-02-10T00:02:06;100866.28;;;-3.11;57.55
65384;BME280;51986;52.788;41.368;2023-02-10T00:04:33;100861.41;;;-3.33;58.05
65384;BME280;51986;52.788;41.368;2023-02-10T00:07:00;100879.47;;;-3.22;58.43
65384;BME280;51986;52.788;41.368;2023-02-10T00:09:27;100856.75;;;-3.25;58.46
65384;BME280;51986;52.788;41.368;2023-02-10T00:11:54;100837.94;;;-3.31;57.39
65384;BME280;51986;52.788;41.368;2023-02-10T00:14:21;100858.31;;;-3.29;57.77
65384;BME280;51986;52.788;41.368;2023-02-10T00:16:50;100873.81;;;-3.29;57.64
65384;BME280;51986;52.788;41.368;2023-02-10T00:19:18;100876.66;;;-3.31;58.11
65384;BME280;51986;52.788;41.368;2023-02-10T00:21:45;100844.13;;;-3.47;58.69
65384;BME280;51986;52.788;41.368;2023-02-10T00:24:12;100872.25;;;-3.41;58.58
65384;BME280;51986;52.788;41.368;2023-02-10T00:26:39;100857.28;;;-3.34;57.95
65384;BME280;51986;52.788;41.368;2023-02-10T00:29:06;100859.63;;;-3.52;58.14
65384;BME280;51986;52.788;41.368;2023-02-10T00:31:33;100876.88;;;-3.38;58.91
65384;BME280;51986;52.788;41.368;2023-02-10T00:34:00;100871.72;;;-3.43;58.34
65384;BME280;51986;52.788;41.368;2023-02-10T00:36:27;100848.03;;;-3.55;58.89
65384;BME280;51986;52.788;41.368;2023-02-10T00:38:54;100844.38;;;-3.34;58.58
65384;BME280;51986;52.788;41.368;2023-02-10T00:41:23;100861.66;;;-3.34;58.69
65384;BME280;51986;52.788;41.368;2023-02-10T00:43:51;100864.00;;;-3.48;59.12
65384;BME280;51986;52.788;41.368;2023-02-10T00:46:19;100856.53;;;-3.44;58.63
65384;BME280;51986;52.788;41.368;2023-02-10T00:48:47;100861.41;;;-3.33;58.12
65384;BME280;51986;52.788;41.368;2023-02-10T00:51:15;100853.19;;;-3.55;58.90
65384;BME280;51986;52.788;41.368;2023-02-10T00:53:42;100823.78;;;-3.59;58.53
65384;BME280;51986;52.788;41.368;2023-02-10T00:56:10;100835.63;;;-3.43;58.16
65384;BME280;51986;52.788;41.368;2023-02-10T00:58:37;100824.28;;;-3.52;58.47
65384;BME280;51986;52.788;41.368;2023-02-10T01:01:05;100820.69;;;-3.51;58.62
65384;BME280;51986;52.788;41.368;2023-02-10T01:03:33;100807.78;;;-3.61;58.31
65384;BME280;51986;52.788;41.368;2023-02-10T01:06:00;100805.19;;;-3.56;59.13
65384;BME280;51986;52.788;41.368;2023-02-10T01:08:27;100815.00;;;-3.53;58.69
65384;BME280;51986;52.788;41.368;2023-02-10T01:11:13;100791.50;;;-3.57;59.56
65384;BME280;51986;52.788;41.368;2023-02-10T01:13:41;100791.53;;;-3.67;59.44
65384;BME280;51986;52.788;41.368;2023-02-10T01:16:12;100823.78;;;-3.54;59.04
65384;BME280;51986;52.788;41.368;2023-02-10T01:18:42;100795.66;;;-3.55;58.69
65384;BME280;51986;52.788;41.368;2023-02-10T01:21:12;100817.56;;;-3.43;58.68
65384;BME280;51986;52.788;41.368;2023-02-10T01:23:40;100813.97;;;-3.77;59.52
65384;BME280;51986;52.788;41.368;2023-02-10T01:26:08;100806.50;;;-3.84;59.77
65384;BME280;51986;52.788;41.368;2023-02-10T01:28:37;100790.25;;;-3.95;59.79
65384;BME280;51986;52.788;41.368;2023-02-10T01:31:05;100819.13;;;-4.03;60.82
65384;BME280;51986;52.788;41.368;2023-02-10T01:33:35;100804.69;;;-3.89;59.91
65384;BME280;51986;52.788;41.368;2023-02-10T01:36:08;100790.00;;;-4.09;60.92
65384;BME280;51986;52.788;41.368;2023-02-10T01:38:36;100783.03;;;-4.08;60.32
65384;BME280;51986;52.788;41.368;2023-02-10T01:41:04;100788.69;;;-4.11;60.70
65384;BME280;51986;52.788;41.368;2023-02-10T01:43:33;100790.25;;;-4.10;60.92
65384;BME280;51986;52.788;41.368;2023-02-10T01:46:00;100769.88;;;-4.17;60.90
65384;BME280;51986;52.788;41.368;2023-02-10T01:48:27;100828.41;;;-3.97;60.27
65384;BME280;51986;52.788;41.368;2023-02-10T01:51:02;100797.97;;;-4.00;61.10
65384;BME280;51986;52.788;41.368;2023-02-10T01:53:31;100789.19;;;-4.14;60.79
65384;BME280;51986;52.788;41.368;2023-02-10T01:56:01;100776.06;;;-4.18;61.65
65384;BME280;51986;52.788;41.368;2023-02-10T01:58:32;100784.31;;;-4.26;61.57
65384;BME280;51986;52.788;41.368;2023-02-10T02:01:01;100785.84;;;-4.04;61.45
65384;BME280;51986;52.788;41.368;2023-02-10T02:03:28;100776.03;;;-4.38;61.39
65384;BME280;51986;52.788;41.368;2023-02-10T02:05:55;100757.00;;;-4.37;61.83
65384;BME280;51986;52.788;41.368;2023-02-10T02:08:25;100774.00;;;-4.05;60.99
65384;BME280;51986;52.788;41.368;2023-02-10T02:11:12;100785.06;;;-4.25;62.29
65384;BME280;51986;52.788;41.368;2023-02-10T02:16:52;100799.78;;;-4.16;61.56
65384;BME280;51986;52.788;41.368;2023-02-10T02:33:49;100804.16;;;-3.96;61.66
65384;BME280;51986;52.788;41.368;2023-02-10T02:38:58;100782.50;;;-4.00;61.43
65384;BME280;51986;52.788;41.368;2023-02-10T02:41:28;100779.94;;;-4.05;61.17
65384;BME280;51986;52.788;41.368;2023-02-10T02:43:57;100744.38;;;-3.98;60.65
65384;BME280;51986;52.788;41.368;2023-02-10T02:49:48;100777.63;;;-4.06;61.54
65384;BME280;51986;52.788;41.368;2023-02-10T02:52:23;100746.16;;;-4.14;61.36
65384;BME280;51986;52.788;41.368;2023-02-10T02:55:05;100774.28;;;-3.92;60.49
65384;BME280;51986;52.788;41.368;2023-02-10T02:57:55;100748.25;;;-4.16;60.87
65384;BME280;51986;52.788;41.368;2023-02-10T03:00:28;100745.91;;;-4.27;61.02
65384;BME280;51986;52.788;41.368;2023-02-10T03:02:57;100762.38;;;-4.23;61.25
65384;BME280;51986;52.788;41.368;2023-02-10T03:05:29;100732.78;;;-4.31;60.77
65384;BME280;51986;52.788;41.368;2023-02-10T03:07:58;100750.31;;;-4.18;61.27
65384;BME280;51986;52.788;41.368;2023-02-10T03:10:25;100738.19;;;-4.22;61.13
65384;BME280;51986;52.788;41.368;2023-02-10T03:12:51;100749.75;;;-4.35;60.87
65384;BME280;51986;52.788;41.368;2023-02-10T03:15:19;100740.72;;;-4.38;61.20
65384;BME280;51986;52.788;41.368;2023-02-10T03:17:46;100726.03;;;-4.47;61.96
65384;BME280;51986;52.788;41.368;2023-02-10T03:20:13;100725.81;;;-4.30;60.76
65384;BME280;51986;52.788;41.368;2023-02-10T03:22:41;100765.50;;;-4.26;60.79
65384;BME280;51986;52.788;41.368;2023-02-10T03:25:08;100737.66;;;-4.40;61.86
65384;BME280;51986;52.788;41.368;2023-02-10T03:27:36;100738.69;;;-4.46;61.86
65384;BME280;51986;52.788;41.368;2023-02-10T03:30:03;100738.94;;;-4.42;61.26
65384;BME280;51986;52.788;41.368;2023-02-10T03:32:30;100721.69;;;-4.47;61.12
65384;BME280;51986;52.788;41.368;2023-02-10T03:34:57;100750.72;;;-4.62;61.85
65384;BME280;51986;52.788;41.368;2023-02-10T03:37:24;100730.94;;;-4.46;61.89
65384;BME280;51986;52.788;41.368;2023-02-10T03:39:51;100732.00;;;-4.37;61.56
65384;BME280;51986;52.788;41.368;2023-02-10T03:42:18;100743.06;;;-4.51;61.90
65384;BME280;51986;52.788;41.368;2023-02-10T03:44:46;100739.16;;;-4.59;61.62
65384;BME280;51986;52.788;41.368;2023-02-10T03:47:16;100725.78;;;-4.51;61.16
65384;BME280;51986;52.788;41.368;2023-02-10T03:49:43;100728.56;;;-4.73;62.44
65384;BME280;51986;52.788;41.368;2023-02-10T03:52:10;100731.69;;;-4.71;61.94
65384;BME280;51986;52.788;41.368;2023-02-10T03:54:37;100718.00;;;-4.71;62.21
65384;BME280;51986;52.788;41.368;2023-02-10T03:57:04;100717.00;;;-4.80;62.06
65384;BME280;51986;52.788;41.368;2023-02-10T03:59:31;100699.75;;;-4.70;62.20
65384;BME280;51986;52.788;41.368;2023-02-10T04:01:58;100732.44;;;-4.80;62.99
65384;BME280;51986;52.788;41.368;2023-02-10T04:04:25;100733.50;;;-4.66;62.09
65384;BME280;51986;52.788;41.368;2023-02-10T04:06:52;100723.22;;;-4.61;62.31
65384;BME280;51986;52.788;41.368;2023-02-10T04:09:19;100710.28;;;-4.76;61.64
65384;BME280;51986;52.788;41.368;2023-02-10T04:11:46;100711.84;;;-4.70;61.46
65384;BME280;51986;52.788;41.368;2023-02-10T04:14:13;100716.00;;;-4.54;60.96
65384;BME280;51986;52.788;41.368;2023-02-10T04:16:40;100717.47;;;-4.83;62.12
65384;BME280;51986;52.788;41.368;2023-02-10T04:19:07;100728.84;;;-4.74;62.05
65384;BME280;51986;52.788;41.368;2023-02-10T04:21:34;100737.59;;;-4.80;61.56
65384;BME280;51986;52.788;41.368;2023-02-10T04:24:01;100717.66;;;-5.11;62.47
65384;BME280;51986;52.788;41.368;2023-02-10T04:26:28;100736.97;;;-5.08;61.83
65384;BME280;51986;52.788;41.368;2023-02-10T04:28:55;100736.91;;;-5.23;62.34
65384;BME280;51986;52.788;41.368;2023-02-10T04:31:22;100727.84;;;-5.31;62.77
65384;BME280;51986;52.788;41.368;2023-02-10T04:33:49;100707.25;;;-5.41;62.07
65384;BME280;51986;52.788;41.368;2023-02-10T04:36:16;100725.94;;;-5.56;62.94
65384;BME280;51986;52.788;41.368;2023-02-10T04:38:43;100727.69;;;-5.61;63.51
65384;BME280;51986;52.788;41.368;2023-02-10T04:41:11;100708.63;;;-5.71;63.79
65384;BME280;51986;52.788;41.368;2023-02-10T04:43:37;100725.91;;;-5.61;63.60
65384;BME280;51986;52.788;41.368;2023-02-10T04:46:04;100698.69;;;-5.57;63.36
65384;BME280;51986;52.788;41.368;2023-02-10T04:48:31;100729.59;;;-5.47;63.37
65384;BME280;51986;52.788;41.368;2023-02-10T04:50:58;100724.34;;;-5.62;63.77
65384;BME280;51986;52.788;41.368;2023-02-10T04:53:25;100719.78;;;-5.50;63.14
65384;BME280;51986;52.788;41.368;2023-02-10T04:55:53;100718.38;;;-5.68;63.05
65384;BME280;51986;52.788;41.368;2023-02-10T04:58:20;100709.72;;;-5.56;62.45
65384;BME280;51986;52.788;41.368;2023-02-10T05:00:47;100707.84;;;-5.71;63.21
65384;BME280;51986;52.788;41.368;2023-02-10T05:03:13;100714.09;;;-5.57;63.41
65384;BME280;51986;52.788;41.368;2023-02-10T05:05:41;100709.84;;;-5.78;63.01
65384;BME280;51986;52.788;41.368;2023-02-10T05:08:08;100740.31;;;-5.60;63.03
65384;BME280;51986;52.788;41.368;2023-02-10T05:10:34;100716.56;;;-5.72;63.47
65384;BME280;51986;52.788;41.368;2023-02-10T05:13:01;100719.16;;;-5.67;63.21
65384;BME280;51986;52.788;41.368;2023-02-10T05:15:29;100726.91;;;-5.62;63.36
65384;BME280;51986;52.788;41.368;2023-02-10T05:17:56;100720.97;;;-5.68;63.21
65384;BME280;51986;52.788;41.368;2023-02-10T05:20:23;100732.13;;;-5.52;63.57
65384;BME280;51986;52.788;41.368;2023-02-10T05:22:50;100722.81;;;-5.58;62.77
65384;BME280;51986;52.788;41.368;2023-02-10T05:25:17;100731.84;;;-5.55;63.16
65384;BME280;51986;52.788;41.368;2023-02-10T05:27:44;100726.47;;;-5.49;63.17
65384;BME280;51986;52.788;41.368;2023-02-10T05:30:11;100731.69;;;-5.33;62.64
65384;BME280;51986;52.788;41.368;2023-02-10T05:32:40;100722.13;;;-5.43;62.60
65384;BME280;51986;52.788;41.368;2023-02-10T05:35:08;100729.91;;;-5.33;62.46
65384;BME280;51986;52.788;41.368;2023-02-10T05:37:35;100716.22;;;-5.39;62.31
65384;BME280;51986;52.788;41.368;2023-02-10T05:40:03;100728.25;;;-5.54;62.63
65384;BME280;51986;52.788;41.368;2023-02-10T05:42:30;100755.84;;;-5.40;63.10
65384;BME280;51986;52.788;41.368;2023-02-10T05:44:57;100744.38;;;-5.17;62.09
65384;BME280;51986;52.788;41.368;2023-02-10T05:47:24;100725.03;;;-5.29;61.56
65384;BME280;51986;52.788;41.368;2023-02-10T05:49:51;100749.78;;;-5.23;62.49
65384;BME280;51986;52.788;41.368;2023-02-10T05:52:18;100740.50;;;-5.19;62.20
65384;BME280;51986;52.788;41.368;2023-02-10T05:54:45;100755.41;;;-5.26;62.50
65384;BME280;51986;52.788;41.368;2023-02-10T05:57:12;100750.94;;;-5.41;62.97
65384;BME280;51986;52.788;41.368;2023-02-10T05:59:40;100729.63;;;-5.37;63.26
65384;BME280;51986;52.788;41.368;2023-02-10T06:02:06;100731.06;;;-5.08;61.79
65384;BME280;51986;52.788;41.368;2023-02-10T06:04:34;100724.50;;;-5.31;62.75
65384;BME280;51986;52.788;41.368;2023-02-10T06:07:01;100741.97;;;-5.33;63.19
65384;BME280;51986;52.788;41.368;2023-02-10T06:09:28;100730.75;;;-5.17;62.45
65384;BME280;51986;52.788;41.368;2023-02-10T06:11:55;100724.09;;;-5.13;62.03
65384;BME280;51986;52.788;41.368;2023-02-10T06:14:22;100707.03;;;-5.24;62.69
65384;BME280;51986;52.788;41.368;2023-02-10T06:16:49;100711.66;;;-5.31;62.21
65384;BME280;51986;52.788;41.368;2023-02-10T06:19:16;100732.59;;;-5.07;62.30
65384;BME280;51986;52.788;41.368;2023-02-10T06:21:46;100722.34;;;-4.92;62.32
65384;BME280;51986;52.788;41.368;2023-02-10T06:24:13;100700.66;;;-5.12;62.38
65384;BME280;51986;52.788;41.368;2023-02-10T06:26:40;100729.00;;;-5.06;62.78
65384;BME280;51986;52.788;41.368;2023-02-10T06:29:07;100722.03;;;-5.11;62.62
65384;BME280;51986;52.788;41.368;2023-02-10T06:31:34;100712.19;;;-5.19;63.37
65384;BME280;51986;52.788;41.368;2023-02-10T06:34:01;100700.28;;;-5.41;63.82
65384;BME280;51986;52.788;41.368;2023-02-10T06:36:28;100701.22;;;-5.04;63.19
65384;BME280;51986;52.788;41.368;2023-02-10T06:38:55;100687.09;;;-4.81;62.78
65384;BME280;51986;52.788;41.368;2023-02-10T06:41:22;100712.59;;;-4.80;62.12
65384;BME280;51986;52.788;41.368;2023-02-10T06:43:49;100688.41;;;-4.89;63.45
65384;BME280;51986;52.788;41.368;2023-02-10T06:46:15;100690.97;;;-4.84;62.83
65384;BME280;51986;52.788;41.368;2023-02-10T06:48:43;100699.00;;;-4.65;62.48
65384;BME280;51986;52.788;41.368;2023-02-10T06:51:10;100672.19;;;-4.79;62.57
65384;BME280;51986;52.788;41.368;2023-02-10T06:53:36;100677.59;;;-4.76;62.38
65384;BME280;51986;52.788;41.368;2023-02-10T06:56:05;100695.38;;;-4.74;62.82
65384;BME280;51986;52.788;41.368;2023-02-10T06:58:32;100684.00;;;-4.89;63.31
65384;BME280;51986;52.788;41.368;2023-02-10T07:00:59;100666.78;;;-4.83;62.68
65384;BME280;51986;52.788;41.368;2023-02-10T07:03:26;100679.44;;;-4.66;62.78
65384;BME280;51986;52.788;41.368;2023-02-10T07:05:53;100674.00;;;-4.85;63.28
65384;BME280;51986;52.788;41.368;2023-02-10T07:08:20;100674.28;;;-4.66;62.82
65384;BME280;51986;52.788;41.368;2023-02-10T07:10:47;100652.91;;;-4.51;62.57
65384;BME280;51986;52.788;41.368;2023-02-10T07:13:15;100645.69;;;-4.80;63.03
65384;BME280;51986;52.788;41.368;2023-02-10T07:15:41;100671.44;;;-4.75;63.06
65384;BME280;51986;52.788;41.368;2023-02-10T07:18:08;100671.72;;;-4.46;62.47
65384;BME280;51986;52.788;41.368;2023-02-10T07:20:36;100673.78;;;-4.17;61.84
65384;BME280;51986;52.788;41.368;2023-02-10T07:23:03;100657.78;;;-4.35;62.15
65384;BME280;51986;52.788;41.368;2023-02-10T07:25:30;100653.38;;;-4.14;62.13
65384;BME280;51986;52.788;41.368;2023-02-10T07:27:57;100657.78;;;-4.35;62.21
65384;BME280;51986;52.788;41.368;2023-02-10T07:30:24;100672.47;;;-4.30;62.20
65384;BME280;51986;52.788;41.368;2023-02-10T07:32:52;100675.06;;;-4.30;63.21
65384;BME280;51986;52.788;41.368;2023-02-10T07:35:19;100669.13;;;-4.20;62.91
65384;BME280;51986;52.788;41.368;2023-02-10T07:37:48;100643.63;;;-4.27;62.58
65384;BME280;51986;52.788;41.368;2023-02-10T07:40:16;100660.09;;;-4.02;61.81
65384;BME280;51986;52.788;41.368;2023-02-10T07:42:42;100638.19;;;-4.05;61.66
65384;BME280;51986;52.788;41.368;2023-02-10T07:45:30;100620.91;;;-4.10;61.95
65384;BME280;51986;52.788;41.368;2023-02-10T07:47:58;100653.91;;;-4.06;62.18
65384;BME280;51986;52.788;41.368;2023-02-10T07:50:25;100649.81;;;-4.23;63.38
65384;BME280;51986;52.788;41.368;2023-02-10T07:52:57;100641.56;;;-4.25;62.64
65384;BME280;51986;52.788;41.368;2023-02-10T07:55:24;100662.13;;;-3.79;61.85
65384;BME280;51986;52.788;41.368;2023-02-10T07:57:51;100641.72;;;-3.75;61.77
65384;BME280;51986;52.788;41.368;2023-02-10T08:00:19;100658.19;;;-3.61;60.94
65384;BME280;51986;52.788;41.368;2023-02-10T08:02:46;100648.19;;;-3.78;61.66
65384;BME280;51986;52.788;41.368;2023-02-10T08:05:13;100628.00;;;-3.66;61.14
65384;BME280;51986;52.788;41.368;2023-02-10T08:07:40;100657.94;;;-3.60;61.00
65384;BME280;51986;52.788;41.368;2023-02-10T08:10:07;100640.59;;;-3.44;60.96
65384;BME280;51986;52.788;41.368;2023-02-10T08:12:34;100622.75;;;-3.35;60.58
65384;BME280;51986;52.788;41.368;2023-02-10T08:15:01;100635.34;;;-3.28;60.36
65384;BME280;51986;52.788;41.368;2023-02-10T08:17:28;100622.63;;;-3.15;60.44
65384;BME280;51986;52.788;41.368;2023-02-10T08:19:55;100616.09;;;-2.97;60.14
65384;BME280;51986;52.788;41.368;2023-02-10T08:22:23;100623.28;;;-2.89;59.19
65384;BME280;51986;52.788;41.368;2023-02-10T08:24:50;100613.41;;;-2.82;58.73
65384;BME280;51986;52.788;41.368;2023-02-10T08:27:17;100620.00;;;-2.70;59.57
65384;BME280;51986;52.788;41.368;2023-02-10T08:29:44;100607.63;;;-3.08;59.93
65384;BME280;51986;52.788;41.368;2023-02-10T08:32:12;100605.19;;;-2.89;59.82
65384;BME280;51986;52.788;41.368;2023-02-10T08:34:39;100606.56;;;-2.67;59.58
65384;BME280;51986;52.788;41.368;2023-02-10T08:37:06;100604.03;;;-2.72;59.63
65384;BME280;51986;52.788;41.368;2023-02-10T08:39:33;100615.31;;;-2.97;60.00
65384;BME280;51986;52.788;41.368;2023-02-10T08:42:00;100591.38;;;-3.13;60.89
65384;BME280;51986;52.788;41.368;2023-02-10T08:44:27;100603.47;;;-3.03;60.92
65384;BME280;51986;52.788;41.368;2023-02-10T08:46:54;100608.63;;;-2.64;59.22
65384;BME280;51986;52.788;41.368;2023-02-10T08:49:21;100574.28;;;-2.70;59.85
65384;BME280;51986;52.788;41.368;2023-02-10T08:51:48;100593.53;;;-2.52;58.93
65384;BME280;51986;52.788;41.368;2023-02-10T08:54:15;100581.03;;;-2.40;59.11
65384;BME280;51986;52.788;41.368;2023-02-10T08:56:42;100557.16;;;-2.61;59.30
65384;BME280;51986;52.788;41.368;2023-02-10T08:59:09;100573.09;;;-2.48;58.78
65384;BME280;51986;52.788;41.368;2023-02-10T09:01:36;100565.63;;;-2.50;58.65
65384;BME280;51986;52.788;41.368;2023-02-10T09:04:04;100548.59;;;-2.85;60.08
65384;BME280;51986;52.788;41.368;2023-02-10T09:06:37;100564.66;;;-2.59;60.19
65384;BME280;51986;52.788;41.368;2023-02-10T09:09:15;100549.25;;;-2.69;59.42
65384;BME280;51986;52.788;41.368;2023-02-10T09:11:43;100548.59;;;-2.56;59.23
65384;BME280;51986;52.788;41.368;2023-02-10T09:14:10;100556.38;;;-2.32;59.04
65384;BME280;51986;52.788;41.368;2023-02-10T09:16:37;100560.09;;;-2.14;58.69
65384;BME280;51986;52.788;41.368;2023-02-10T09:19:04;100524.75;;;-2.48;58.43
65384;BME280;51986;52.788;41.368;2023-02-10T09:21:32;100545.22;;;-2.51;59.42
65384;BME280;51986;52.788;41.368;2023-02-10T09:24:12;100551.13;;;-2.51;59.37
65384;BME280;51986;52.788;41.368;2023-02-10T09:26:39;100553.31;;;-2.34;59.83
65384;BME280;51986;52.788;41.368;2023-02-10T09:29:06;100541.09;;;-2.82;61.05
65384;BME280;51986;52.788;41.368;2023-02-10T09:31:34;100535.88;;;-2.76;60.59
65384;BME280;51986;52.788;41.368;2023-02-10T09:34:01;100558.25;;;-2.67;60.71
65384;BME280;51986;52.788;41.368;2023-02-10T09:36:28;100571.06;;;-2.86;61.52
65384;BME280;51986;52.788;41.368;2023-02-10T09:38:56;100562.31;;;-2.90;62.31
65384;BME280;51986;52.788;41.368;2023-02-10T09:47:11;100548.97;;;-2.68;62.21
65384;BME280;51986;52.788;41.368;2023-02-10T09:53:03;100574.09;;;-2.44;61.45
65384;BME280;51986;52.788;41.368;2023-02-10T09:55:41;100534.63;;;-2.50;62.11
65384;BME280;51986;52.788;41.368;2023-02-10T09:58:21;100533.41;;;-2.34;61.55
65384;BME280;51986;52.788;41.368;2023-02-10T10:00:56;100537.28;;;-2.31;61.16
65384;BME280;51986;52.788;41.368;2023-02-10T10:03:33;100533.94;;;-2.37;61.07
65384;BME280;51986;52.788;41.368;2023-02-10T10:06:26;100520.31;;;-2.18;61.04
65384;BME280;51986;52.788;41.368;2023-02-10T10:14:22;100521.19;;;-2.04;60.71
65384;BME280;51986;52.788;41.368;2023-02-10T10:19:48;100521.00;;;-1.89;60.62
65384;BME280;51986;52.788;41.368;2023-02-10T10:33:23;100449.88;;;-1.35;57.77
65384;BME280;51986;52.788;41.368;2023-02-10T10:35:51;100462.19;;;-1.45;58.51
65384;BME280;51986;52.788;41.368;2023-02-10T10:38:27;100447.44;;;-1.26;58.09
65384;BME280;51986;52.788;41.368;2023-02-10T10:41:00;100463.59;;;-1.34;58.12
65384;BME280;51986;52.788;41.368;2023-02-10T10:43:46;100462.00;;;-1.30;57.69
65384;BME280;51986;52.788;41.368;2023-02-10T10:46:21;100440.94;;;-1.10;57.93
65384;BME280;51986;52.788;41.368;2023-02-10T10:48:50;100435.50;;;-1.27;57.54
65384;BME280;51986;52.788;41.368;2023-02-10T10:51:17;100445.16;;;-1.14;57.66
65384;BME280;51986;52.788;41.368;2023-02-10T10:53:50;100419.28;;;-1.00;57.34
65384;BME280;51986;52.788;41.368;2023-02-10T10:56:32;100444.31;;;-0.95;57.22
65384;BME280;51986;52.788;41.368;2023-02-10T11:01:57;100434.03;;;-1.14;58.36
65384;BME280;51986;52.788;41.368;2023-02-10T11:04:26;100435.19;;;-1.07;57.66
65384;BME280;51986;52.788;41.368;2023-02-10T11:06:56;100424.97;;;-1.31;57.53
65384;BME280;51986;52.788;41.368;2023-02-10T11:12:19;100422.22;;;-1.20;57.66
65384;BME280;51986;52.788;41.368;2023-02-10T11:14:48;100418.94;;;-1.26;58.15
65384;BME280;51986;52.788;41.368;2023-02-10T11:20:00;100406.63;;;-1.67;59.12
65384;BME280;51986;52.788;41.368;2023-02-10T11:22:28;100405.09;;;-1.68;59.09
65384;BME280;51986;52.788;41.368;2023-02-10T11:24:57;100404.19;;;-1.58;59.22
65384;BME280;51986;52.788;41.368;2023-02-10T11:27:25;100403.22;;;-1.62;59.19
65384;BME280;51986;52.788;41.368;2023-02-10T11:29:58;100392.66;;;-1.66;58.85
65384;BME280;51986;52.788;41.368;2023-02-10T11:32:31;100399.16;;;-1.68;59.04
65384;BME280;51986;52.788;41.368;2023-02-10T11:35:02;100380.53;;;-1.52;58.49
65384;BME280;51986;52.788;41.368;2023-02-10T11:37:33;100383.88;;;-1.51;58.27
65384;BME280;51986;52.788;41.368;2023-02-10T11:40:16;100374.09;;;-1.54;58.22
65384;BME280;51986;52.788;41.368;2023-02-10T11:42:48;100380.47;;;-1.33;57.12
65384;BME280;51986;52.788;41.368;2023-02-10T11:45:29;100365.16;;;-1.29;57.80
65384;BME280;51986;52.788;41.368;2023-02-10T11:48:17;100377.00;;;-1.42;58.18
65384;BME280;51986;52.788;41.368;2023-02-10T11:50:45;100402.06;;;-1.56;57.81
65384;BME280;51986;52.788;41.368;2023-02-10T11:53:26;100406.69;;;-1.53;58.43
65384;BME280;51986;52.788;41.368;2023-02-10T12:13:02;100369.78;;;-1.59;58.63
65384;BME280;51986;52.788;41.368;2023-02-10T12:18:58;100368.16;;;-1.87;60.21
65384;BME280;51986;52.788;41.368;2023-02-10T12:24:10;100356.97;;;-1.83;59.99
65384;BME280;51986;52.788;41.368;2023-02-10T12:26:47;100360.03;;;-1.99;60.51
65384;BME280;51986;52.788;41.368;2023-02-10T12:32:08;100361.63;;;-1.85;60.58
65384;BME280;51986;52.788;41.368;2023-02-10T12:54:03;100328.53;;;-2.58;63.41
65384;BME280;51986;52.788;41.368;2023-02-10T12:56:41;100310.47;;;-2.58;63.72
65384;BME280;51986;52.788;41.368;2023-02-10T12:59:18;100305.56;;;-2.78;64.43
65384;BME280;51986;52.788;41.368;2023-02-10T13:01:51;100301.44;;;-2.61;63.98
65384;BME280;51986;52.788;41.368;2023-02-10T13:04:28;100336.41;;;-2.68;63.58
65384;BME280;51986;52.788;41.368;2023-02-10T13:09:46;100312.22;;;-2.35;62.60
65384;BME280;51986;52.788;41.368;2023-02-10T13:12:25;100335.13;;;-2.28;62.80
65384;BME280;51986;52.788;41.368;2023-02-10T13:15:02;100335.47;;;-2.35;63.15
65384;BME280;51986;52.788;41.368;2023-02-10T13:17:39;100333.09;;;-2.50;62.50
65384;BME280;51986;52.788;41.368;2023-02-10T13:23:01;100321.03;;;-2.17;62.22
65384;BME280;51986;52.788;41.368;2023-02-10T13:25:51;100319.19;;;-2.35;62.42
65384;BME280;51986;52.788;41.368;2023-02-10T13:31:31;100345.09;;;-2.59;63.66
65384;BME280;51986;52.788;41.368;2023-02-10T13:35:04;100318.31;;;-2.87;63.74
65384;BME280;51986;52.788;41.368;2023-02-10T13:39:55;100331.09;;;-3.01;63.83
65384;BME280;51986;52.788;41.368;2023-02-10T13:42:33;100317.81;;;-3.13;64.63
65384;BME280;51986;52.788;41.368;2023-02-10T13:45:22;100326.38;;;-3.18;65.22
65384;BME280;51986;52.788;41.368;2023-02-10T13:53:04;100356.19;;;-3.31;65.38
65384;BME280;51986;52.788;41.368;2023-02-10T14:00:51;100329.31;;;-3.53;65.83
65384;BME280;51986;52.788;41.368;2023-02-10T14:03:23;100317.69;;;-3.51;65.51
65384;BME280;51986;52.788;41.368;2023-02-10T14:08:41;100309.47;;;-3.58;65.61
65384;BME280;51986;52.788;41.368;2023-02-10T14:11:38;100317.16;;;-3.53;64.82
65384;BME280;51986;52.788;41.368;2023-02-10T14:19:44;100301.13;;;-3.74;65.14
65384;BME280;51986;52.788;41.368;2023-02-10T14:22:41;100312.25;;;-3.78;66.20
65384;BME280;51986;52.788;41.368;2023-02-10T14:27:36;100292.56;;;-3.69;65.72
65384;BME280;51986;52.788;41.368;2023-02-10T14:30:18;100289.03;;;-3.78;66.58
65384;BME280;51986;52.788;41.368;2023-02-10T14:32:49;100287.66;;;-4.00;66.94
65384;BME280;51986;52.788;41.368;2023-02-10T14:35:22;100289.97;;;-3.98;67.23
65384;BME280;51986;52.788;41.368;2023-02-10T14:37:57;100290.00;;;-4.03;67.16
65384;BME280;51986;52.788;41.368;2023-02-10T14:40:27;100288.41;;;-3.94;66.38
65384;BME280;51986;52.788;41.368;2023-02-10T14:42:57;100275.09;;;-4.06;66.18
65384;BME280;51986;52.788;41.368;2023-02-10T14:45:26;100277.47;;;-4.15;66.40
65384;BME280;51986;52.788;41.368;2023-02-10T14:47:56;100277.66;;;-4.46;67.14
65384;BME280;51986;52.788;41.368;2023-02-10T14:50:31;100274.34;;;-4.46;67.99
65384;BME280;51986;52.788;41.368;2023-02-10T14:52:59;100256.00;;;-4.40;67.75
65384;BME280;51986;52.788;41.368;2023-02-10T14:55:33;100256.34;;;-4.17;66.43
65384;BME280;51986;52.788;41.368;2023-02-10T15:00:36;100221.34;;;-4.57;67.72
65384;BME280;51986;52.788;41.368;2023-02-10T15:03:04;100274.78;;;-4.39;67.18
65384;BME280;51986;52.788;41.368;2023-02-10T15:05:35;100251.97;;;-4.56;67.72
65384;BME280;51986;52.788;41.368;2023-02-10T15:08:06;100256.03;;;-4.45;67.52
65384;BME280;51986;52.788;41.368;2023-02-10T15:10:35;100248.34;;;-4.50;67.67
65384;BME280;51986;52.788;41.368;2023-02-10T15:13:04;100228.75;;;-4.46;66.72
65384;BME280;51986;52.788;41.368;2023-02-10T15:15:36;100234.69;;;-4.50;67.88